sensor_id;sensor_type;location;lat;lon;timestamp;pressure;altitude;pressure_sealevel;temperature;humidity
7836;BME280;3963;42.658;23.298;2022-12-18T00:02:20;59198.38;;;6.84;100.00
7836;BME280;3963;42.658;23.298;2022-12-18T00:04:48;59176.19;;;6.82;100.00
7836;BME280;3963;42.658;23.298;2022-12-18T00:07:15;59144.81;;;6.69;100.00
7836;BME280;3963;42.658;23.298;2022-12-18T00:09:42;59129.19;;;6.50;100.00
7836;BME280;3963;42.658;23.298;2022-12-18T00:12:09;59120.50;;;6.51;100.00
7836;BME280;3963;42.658;23.298;2022-12-18T00:14:36;59087.94;;;6.33;100.00
7836;BME280;3963;42.658;23.298;2022-12-18T00:17:02;59067.06;;;6.25;100.00
7836;BME280;3963;42.658;23.298;2022-12-18T00:19:29;59143.59;;;6.37;100.00
7836;BME280;3963;42.658;23.298;2022-12-18T00:21:57;59094.47;;;6.29;100.00
7836;BME280;3963;42.658;23.298;2022-12-18T00:24:24;59097.13;;;6.32;100.00
7836;BME280;3963;42.658;23.298;2022-12-18T00:26:51;59078.75;;;6.22;100.00
7836;BME280;3963;42.658;23.298;2022-12-18T00:29:18;59078.97;;;6.27;100.00
7836;BME280;3963;42.658;23.298;2022-12-18T00:31:44;59078.56;;;6.17;100.00
7836;BME280;3963;42.658;23.298;2022-12-18T00:34:12;59087.03;;;5.95;100.00
7836;BME280;3963;42.658;23.298;2022-12-18T00:36:39;59074.66;;;6.08;100.00
7836;BME280;3963;42.658;23.298;2022-12-18T00:39:08;59088.81;;;6.02;100.00
7836;BME280;3963;42.658;23.298;2022-12-18T00:41:36;58989.91;;;5.81;100.00
7836;BME280;3963;42.658;23.298;2022-12-18T00:44:20;59055.59;;;6.07;100.00
7836;BME280;3963;42.658;23.298;2022-12-18T00:46:47;59115.25;;;6.07;100.00
7836;BME280;3963;42.658;23.298;2022-12-18T00:49:15;59098.22;;;6.06;100.00
7836;BME280;3963;42.658;23.298;2022-12-18T00:51:43;59081.06;;;6.14;100.00
7836;BME280;3963;42.658;23.298;2022-12-18T00:54:11;59098.94;;;6.11;100.00
7836;BME280;3963;42.658;23.298;2022-12-18T00:56:39;59066.59;;;6.12;100.00
7836;BME280;3963;42.658;23.298;2022-12-18T00:59:06;59072.91;;;6.16;100.00
7836;BME280;3963;42.658;23.298;2022-12-18T01:01:33;59090.25;;;6.13;100.00
7836;BME280;3963;42.658;23.298;2022-12-18T01:04:02;59049.50;;;5.82;100.00
7836;BME280;3963;42.658;23.298;2022-12-18T01:06:29;59035.47;;;5.90;100.00
7836;BME280;3963;42.658;23.298;2022-12-18T01:08:56;59045.66;;;5.88;100.00
7836;BME280;3963;42.658;23.298;2022-12-18T01:11:25;59044.91;;;5.82;100.00
7836;BME280;3963;42.658;23.298;2022-12-18T01:13:53;58934.78;;;5.48;100.00
7836;BME280;3963;42.658;23.298;2022-12-18T01:16:20;59007.94;;;5.69;100.00
7836;BME280;3963;42.658;23.298;2022-12-18T01:18:47;59020.47;;;5.62;100.00
7836;BME280;3963;42.658;23.298;2022-12-18T01:21:15;59051.78;;;5.74;100.00
7836;BME280;3963;42.658;23.298;2022-12-18T01:23:42;59012.84;;;5.76;100.00
7836;BME280;3963;42.658;23.298;2022-12-18T01:26:11;58992.88;;;5.65;100.00
7836;BME280;3963;42.658;23.298;2022-12-18T01:28:40;58995.16;;;5.57;100.00
7836;BME280;3963;42.658;23.298;2022-12-18T01:31:15;58980.06;;;5.38;100.00
7836;BME280;3963;42.658;23.298;2022-12-18T01:33:43;58998.31;;;5.45;100.00
7836;BME280;3963;42.658;23.298;2022-12-18T01:36:14;59031.00;;;5.54;100.00
7836;BME280;3963;42.658;23.298;2022-12-18T01:38:42;58941.53;;;5.23;100.00
7836;BME280;3963;42.658;23.298;2022-12-18T01:41:10;58925.59;;;5.23;100.00
7836;BME280;3963;42.658;23.298;2022-12-18T01:43:44;58974.34;;;5.23;100.00
7836;BME280;3963;42.658;23.298;2022-12-18T01:46:11;58909.03;;;5.05;100.00
7836;BME280;3963;42.658;23.298;2022-12-18T01:48:39;58912.47;;;5.00;100.00
7836;BME280;3963;42.658;23.298;2022-12-18T01:51:08;58956.09;;;5.00;100.00
7836;BME280;3963;42.658;23.298;2022-12-18T01:53:36;58925.13;;;4.95;100.00
7836;BME280;3963;42.658;23.298;2022-12-18T01:56:03;58972.34;;;4.96;100.00
7836;BME280;3963;42.658;23.298;2022-12-18T01:58:37;58955.91;;;4.95;100.00
7836;BME280;3963;42.658;23.298;2022-12-18T02:01:08;58913.59;;;4.89;100.00
7836;BME280;3963;42.658;23.298;2022-12-18T02:03:35;58928.66;;;4.94;100.00
7836;BME280;3963;42.658;23.298;2022-12-18T02:06:09;58912.47;;;5.00;100.00
7836;BME280;3963;42.658;23.298;2022-12-18T02:08:41;58913.78;;;4.94;100.00
7836;BME280;3963;42.658;23.298;2022-12-18T02:11:15;58916.53;;;4.99;100.00
7836;BME280;3963;42.658;23.298;2022-12-18T02:13:48;58911.22;;;4.94;100.00
7836;BME280;3963;42.658;23.298;2022-12-18T02:16:25;58936.28;;;5.06;100.00
7836;BME280;3963;42.658;23.298;2022-12-18T02:18:57;58965.06;;;5.21;100.00
7836;BME280;3963;42.658;23.298;2022-12-18T02:21:31;58965.94;;;5.17;100.00
7836;BME280;3963;42.658;23.298;2022-12-18T02:24:13;59004.72;;;5.25;100.00
7836;BME280;3963;42.658;23.298;2022-12-18T02:26:48;58948.59;;;5.20;100.00
7836;BME280;3963;42.658;23.298;2022-12-18T02:29:19;58959.47;;;5.09;100.00
7836;BME280;3963;42.658;23.298;2022-12-18T02:31:52;58964.97;;;5.19;100.00
7836;BME280;3963;42.658;23.298;2022-12-18T02:34:23;58934.19;;;5.19;100.00
7836;BME280;3963;42.658;23.298;2022-12-18T02:36:53;58929.31;;;5.12;100.00
7836;BME280;3963;42.658;23.298;2022-12-18T02:39:21;58917.03;;;4.85;100.00
7836;BME280;3963;42.658;23.298;2022-12-18T02:41:52;58915.72;;;4.91;100.00
7836;BME280;3963;42.658;23.298;2022-12-18T02:44:19;58918.72;;;4.89;100.00
7836;BME280;3963;42.658;23.298;2022-12-18T02:46:49;58895.09;;;4.74;100.00
7836;BME280;3963;42.658;23.298;2022-12-18T02:49:26;58912.69;;;4.79;100.00
7836;BME280;3963;42.658;23.298;2022-12-18T02:52:01;58860.44;;;4.80;100.00
7836;BME280;3963;42.658;23.298;2022-12-18T02:54:39;58902.81;;;4.89;100.00
7836;BME280;3963;42.658;23.298;2022-12-18T02:57:16;58904.91;;;4.76;100.00
7836;BME280;3963;42.658;23.298;2022-12-18T02:59:51;58835.13;;;4.61;100.00
7836;BME280;3963;42.658;23.298;2022-12-18T03:02:24;58873.88;;;4.83;100.00
7836;BME280;3963;42.658;23.298;2022-12-18T03:04:59;58906.34;;;4.87;100.00
7836;BME280;3963;42.658;23.298;2022-12-18T03:07:35;58881.22;;;4.88;100.00
7836;BME280;3963;42.658;23.298;2022-12-18T03:10:05;58897.38;;;4.81;100.00
7836;BME280;3963;42.658;23.298;2022-12-18T03:12:36;58888.84;;;4.85;100.00
7836;BME280;3963;42.658;23.298;2022-12-18T03:15:09;58889.69;;;4.81;100.00
7836;BME280;3963;42.658;23.298;2022-12-18T03:17:39;58885.63;;;4.82;100.00
7836;BME280;3963;42.658;23.298;2022-12-18T03:20:11;58887.97;;;4.89;100.00
7836;BME280;3963;42.658;23.298;2022-12-18T03:22:40;58877.50;;;4.84;100.00
7836;BME280;3963;42.658;23.298;2022-12-18T03:25:12;58909.88;;;4.86;100.00
7836;BME280;3963;42.658;23.298;2022-12-18T03:27:44;58893.97;;;4.85;100.00
7836;BME280;3963;42.658;23.298;2022-12-18T03:30:14;58891.53;;;4.76;100.00
7836;BME280;3963;42.658;23.298;2022-12-18T03:32:46;58900.84;;;4.77;100.00
7836;BME280;3963;42.658;23.298;2022-12-18T03:35:18;58872.72;;;4.80;100.00
7836;BME280;3963;42.658;23.298;2022-12-18T03:37:47;58870.63;;;4.78;100.00
7836;BME280;3963;42.658;23.298;2022-12-18T03:40:14;58896.84;;;4.81;100.00
7836;BME280;3963;42.658;23.298;2022-12-18T03:42:47;58898.28;;;4.77;100.00
7836;BME280;3963;42.658;23.298;2022-12-18T03:45:20;58858.38;;;4.66;100.00
7836;BME280;3963;42.658;23.298;2022-12-18T03:47:56;58880.13;;;4.72;100.00
7836;BME280;3963;42.658;23.298;2022-12-18T03:50:34;58856.44;;;4.69;100.00
7836;BME280;3963;42.658;23.298;2022-12-18T03:53:09;58873.03;;;4.61;100.00
7836;BME280;3963;42.658;23.298;2022-12-18T03:55:42;58875.84;;;4.54;100.00
7836;BME280;3963;42.658;23.298;2022-12-18T03:58:15;58839.63;;;4.58;100.00
7836;BME280;3963;42.658;23.298;2022-12-18T04:00:45;58847.94;;;4.61;100.00
7836;BME280;3963;42.658;23.298;2022-12-18T04:03:16;58846.78;;;4.58;100.00
7836;BME280;3963;42.658;23.298;2022-12-18T04:05:45;58821.06;;;4.55;100.00
7836;BME280;3963;42.658;23.298;2022-12-18T04:08:14;58859.94;;;4.53;100.00
7836;BME280;3963;42.658;23.298;2022-12-18T04:10:41;58821.41;;;4.51;100.00
7836;BME280;3963;42.658;23.298;2022-12-18T04:13:09;58868.69;;;4.54;100.00
7836;BME280;3963;42.658;23.298;2022-12-18T04:15:38;58827.75;;;4.42;100.00
7836;BME280;3963;42.658;23.298;2022-12-18T04:18:05;58836.78;;;4.51;100.00
7836;BME280;3963;42.658;23.298;2022-12-18T04:20:32;58861.09;;;4.57;100.00
7836;BME280;3963;42.658;23.298;2022-12-18T04:22:59;58825.19;;;4.42;100.00
7836;BME280;3963;42.658;23.298;2022-12-18T04:25:26;58824.22;;;4.43;100.00
7836;BME280;3963;42.658;23.298;2022-12-18T04:27:53;58812.56;;;4.47;100.00
7836;BME280;3963;42.658;23.298;2022-12-18T04:30:20;58832.56;;;4.61;100.00
7836;BME280;3963;42.658;23.298;2022-12-18T04:32:49;58843.50;;;4.52;100.00
7836;BME280;3963;42.658;23.298;2022-12-18T04:35:16;58833.94;;;4.43;100.00
7836;BME280;3963;42.658;23.298;2022-12-18T04:37:43;58820.41;;;4.37;100.00
7836;BME280;3963;42.658;23.298;2022-12-18T04:40:11;58817.31;;;4.37;100.00
7836;BME280;3963;42.658;23.298;2022-12-18T04:42:39;58837.03;;;4.43;100.00
7836;BME280;3963;42.658;23.298;2022-12-18T04:45:07;58843.56;;;4.40;100.00
7836;BME280;3963;42.658;23.298;2022-12-18T04:47:34;58808.56;;;4.36;100.00
7836;BME280;3963;42.658;23.298;2022-12-18T04:50:03;58792.03;;;4.32;100.00
7836;BME280;3963;42.658;23.298;2022-12-18T04:52:32;58793.34;;;4.26;100.00
7836;BME280;3963;42.658;23.298;2022-12-18T04:54:59;58835.50;;;4.30;100.00
7836;BME280;3963;42.658;23.298;2022-12-18T04:57:26;58830.72;;;4.25;100.00
7836;BME280;3963;42.658;23.298;2022-12-18T04:59:53;58815.69;;;4.21;100.00
7836;BME280;3963;42.658;23.298;2022-12-18T05:02:19;58782.50;;;4.23;100.00
7836;BME280;3963;42.658;23.298;2022-12-18T05:04:46;58790.44;;;4.31;100.00
7836;BME280;3963;42.658;23.298;2022-12-18T05:07:14;58785.66;;;4.26;100.00
7836;BME280;3963;42.658;23.298;2022-12-18T05:09:41;58778.06;;;4.29;100.00
7836;BME280;3963;42.658;23.298;2022-12-18T05:12:08;58815.16;;;4.20;100.00
7836;BME280;3963;42.658;23.298;2022-12-18T05:14:35;58785.13;;;4.26;100.00
7836;BME280;3963;42.658;23.298;2022-12-18T05:17:02;58761.72;;;4.16;100.00
7836;BME280;3963;42.658;23.298;2022-12-18T05:19:29;58817.94;;;3.99;100.00
7836;BME280;3963;42.658;23.298;2022-12-18T05:21:56;58758.44;;;4.10;100.00
7836;BME280;3963;42.658;23.298;2022-12-18T05:24:25;58782.63;;;4.14;100.00
7836;BME280;3963;42.658;23.298;2022-12-18T05:26:52;58797.72;;;4.06;100.00
7836;BME280;3963;42.658;23.298;2022-12-18T05:29:19;58802.75;;;4.04;100.00
7836;BME280;3963;42.658;23.298;2022-12-18T05:31:47;58764.25;;;4.16;100.00
7836;BME280;3963;42.658;23.298;2022-12-18T05:34:14;58770.44;;;4.02;100.00
7836;BME280;3963;42.658;23.298;2022-12-18T05:36:42;58762.16;;;4.14;100.00
7836;BME280;3963;42.658;23.298;2022-12-18T05:39:08;58809.59;;;4.22;100.00
7836;BME280;3963;42.658;23.298;2022-12-18T05:41:37;58786.34;;;4.17;100.00
7836;BME280;3963;42.658;23.298;2022-12-18T05:44:04;58777.53;;;4.14;100.00
7836;BME280;3963;42.658;23.298;2022-12-18T05:46:30;58803.31;;;4.19;100.00
7836;BME280;3963;42.658;23.298;2022-12-18T05:48:59;58776.78;;;3.94;100.00
7836;BME280;3963;42.658;23.298;2022-12-18T05:51:26;58757.06;;;3.87;100.00
7836;BME280;3963;42.658;23.298;2022-12-18T05:53:53;58754.13;;;3.77;100.00
7836;BME280;3963;42.658;23.298;2022-12-18T05:56:21;58733.50;;;3.86;100.00
7836;BME280;3963;42.658;23.298;2022-12-18T05:58:51;58759.44;;;3.82;100.00
7836;BME280;3963;42.658;23.298;2022-12-18T06:01:20;58762.75;;;3.61;100.00
7836;BME280;3963;42.658;23.298;2022-12-18T06:03:48;58755.72;;;3.78;100.00
7836;BME280;3963;42.658;23.298;2022-12-18T06:06:15;58739.47;;;3.82;100.00
7836;BME280;3963;42.658;23.298;2022-12-18T06:08:43;58738.53;;;3.84;100.00
7836;BME280;3963;42.658;23.298;2022-12-18T06:11:10;58744.28;;;3.87;100.00
7836;BME280;3963;42.658;23.298;2022-12-18T06:13:37;58746.59;;;3.94;100.00
7836;BME280;3963;42.658;23.298;2022-12-18T06:16:06;58770.97;;;4.03;100.00
7836;BME280;3963;42.658;23.298;2022-12-18T06:18:34;58772.63;;;4.07;100.00
7836;BME280;3963;42.658;23.298;2022-12-18T06:21:01;58758.25;;;4.05;100.00
7836;BME280;3963;42.658;23.298;2022-12-18T06:23:28;58761.06;;;3.98;100.00
7836;BME280;3963;42.658;23.298;2022-12-18T06:25:56;58747.28;;;4.00;100.00
7836;BME280;3963;42.658;23.298;2022-12-18T06:28:23;58749.84;;;4.00;100.00
7836;BME280;3963;42.658;23.298;2022-12-18T06:30:50;58806.50;;;4.22;100.00
7836;BME280;3963;42.658;23.298;2022-12-18T06:33:18;58768.34;;;4.15;100.00
7836;BME280;3963;42.658;23.298;2022-12-18T06:35:45;58816.31;;;4.24;100.00
7836;BME280;3963;42.658;23.298;2022-12-18T06:38:13;58809.16;;;4.24;100.00
7836;BME280;3963;42.658;23.298;2022-12-18T06:40:40;58768.75;;;4.13;100.00
7836;BME280;3963;42.658;23.298;2022-12-18T06:43:07;58772.00;;;4.04;100.00
7836;BME280;3963;42.658;23.298;2022-12-18T06:45:34;58770.00;;;4.04;100.00
7836;BME280;3963;42.658;23.298;2022-12-18T06:48:01;58793.50;;;4.17;100.00
7836;BME280;3963;42.658;23.298;2022-12-18T06:50:30;58772.41;;;4.14;100.00
7836;BME280;3963;42.658;23.298;2022-12-18T06:52:56;58839.75;;;4.34;100.00
7836;BME280;3963;42.658;23.298;2022-12-18T06:55:23;58829.50;;;4.34;100.00
7836;BME280;3963;42.658;23.298;2022-12-18T06:57:50;58804.91;;;4.20;100.00
7836;BME280;3963;42.658;23.298;2022-12-18T07:00:18;58799.78;;;4.20;100.00
7836;BME280;3963;42.658;23.298;2022-12-18T07:02:45;58822.31;;;4.20;100.00
7836;BME280;3963;42.658;23.298;2022-12-18T07:05:12;58759.41;;;4.09;100.00
7836;BME280;3963;42.658;23.298;2022-12-18T07:07:40;58797.00;;;4.01;100.00
7836;BME280;3963;42.658;23.298;2022-12-18T07:10:07;58720.09;;;3.98;100.00
7836;BME280;3963;42.658;23.298;2022-12-18T07:12:34;58775.47;;;4.00;100.00
7836;BME280;3963;42.658;23.298;2022-12-18T07:15:01;58780.06;;;3.99;100.00
7836;BME280;3963;42.658;23.298;2022-12-18T07:17:28;58749.59;;;4.07;100.00
7836;BME280;3963;42.658;23.298;2022-12-18T07:19:56;58817.78;;;4.08;100.00
7836;BME280;3963;42.658;23.298;2022-12-18T07:22:23;58802.78;;;4.18;100.00
7836;BME280;3963;42.658;23.298;2022-12-18T07:24:52;58776.03;;;4.29;100.00
7836;BME280;3963;42.658;23.298;2022-12-18T07:27:20;58821.00;;;4.26;100.00
7836;BME280;3963;42.658;23.298;2022-12-18T07:29:48;58779.31;;;4.20;100.00
7836;BME280;3963;42.658;23.298;2022-12-18T07:32:15;58783.81;;;4.32;100.00
7836;BME280;3963;42.658;23.298;2022-12-18T07:34:42;58811.56;;;4.34;100.00
7836;BME280;3963;42.658;23.298;2022-12-18T07:37:09;58779.94;;;4.23;100.00
7836;BME280;3963;42.658;23.298;2022-12-18T07:39:36;58749.97;;;4.17;100.00
7836;BME280;3963;42.658;23.298;2022-12-18T07:42:05;58790.25;;;4.26;100.00
7836;BME280;3963;42.658;23.298;2022-12-18T07:44:49;58790.25;;;4.26;100.00
7836;BME280;3963;42.658;23.298;2022-12-18T07:47:16;58818.09;;;4.30;100.00
7836;BME280;3963;42.658;23.298;2022-12-18T07:49:42;58767.91;;;4.31;100.00
7836;BME280;3963;42.658;23.298;2022-12-18T07:52:09;58822.34;;;4.34;100.00
7836;BME280;3963;42.658;23.298;2022-12-18T07:54:37;58807.03;;;4.22;100.00
7836;BME280;3963;42.658;23.298;2022-12-18T07:57:07;58797.53;;;4.42;100.00
7836;BME280;3963;42.658;23.298;2022-12-18T07:59:34;58802.53;;;4.25;100.00
7836;BME280;3963;42.658;23.298;2022-12-18T08:02:01;58801.94;;;4.37;100.00
7836;BME280;3963;42.658;23.298;2022-12-18T08:04:28;58795.56;;;4.31;100.00
7836;BME280;3963;42.658;23.298;2022-12-18T08:06:55;58805.63;;;4.26;100.00
7836;BME280;3963;42.658;23.298;2022-12-18T08:09:22;58752.25;;;4.09;100.00
7836;BME280;3963;42.658;23.298;2022-12-18T08:11:48;58754.88;;;3.97;100.00
7836;BME280;3963;42.658;23.298;2022-12-18T08:14:16;58752.66;;;3.92;100.00
7836;BME280;3963;42.658;23.298;2022-12-18T08:16:43;58727.31;;;3.85;100.00
7836;BME280;3963;42.658;23.298;2022-12-18T08:19:11;58733.66;;;3.91;100.00
7836;BME280;3963;42.658;23.298;2022-12-18T08:21:38;58766.78;;;3.86;100.00
7836;BME280;3963;42.658;23.298;2022-12-18T08:24:05;58751.84;;;3.84;100.00
7836;BME280;3963;42.658;23.298;2022-12-18T08:26:32;58718.91;;;3.80;100.00
7836;BME280;3963;42.658;23.298;2022-12-18T08:28:59;58744.72;;;3.85;100.00
7836;BME280;3963;42.658;23.298;2022-12-18T08:31:29;58757.22;;;3.77;100.00
7836;BME280;3963;42.658;23.298;2022-12-18T08:33:56;58736.75;;;3.77;100.00
7836;BME280;3963;42.658;23.298;2022-12-18T08:36:24;58749.31;;;3.84;100.00
7836;BME280;3963;42.658;23.298;2022-12-18T08:38:52;58752.13;;;3.92;100.00
7836;BME280;3963;42.658;23.298;2022-12-18T08:41:19;58708.88;;;3.85;100.00
7836;BME280;3963;42.658;23.298;2022-12-18T08:43:46;58769.50;;;3.91;100.00
7836;BME280;3963;42.658;23.298;2022-12-18T08:46:34;58728.19;;;3.81;100.00
7836;BME280;3963;42.658;23.298;2022-12-18T08:49:02;58762.78;;;3.75;100.00
7836;BME280;3963;42.658;23.298;2022-12-18T08:51:29;58730.94;;;3.86;100.00
7836;BME280;3963;42.658;23.298;2022-12-18T08:53:56;58751.22;;;3.81;100.00
7836;BME280;3963;42.658;23.298;2022-12-18T08:56:23;58731.56;;;3.89;100.00
7836;BME280;3963;42.658;23.298;2022-12-18T08:58:51;58743.91;;;3.91;100.00
7836;BME280;3963;42.658;23.298;2022-12-18T09:01:18;58708.59;;;3.77;100.00
7836;BME280;3963;42.658;23.298;2022-12-18T09:03:46;58767.75;;;3.85;100.00
7836;BME280;3963;42.658;23.298;2022-12-18T09:06:14;58765.91;;;3.90;100.00
7836;BME280;3963;42.658;23.298;2022-12-18T09:08:42;58785.25;;;4.02;100.00
7836;BME280;3963;42.658;23.298;2022-12-18T09:11:13;58740.41;;;3.93;100.00
7836;BME280;3963;42.658;23.298;2022-12-18T09:13:40;58739.16;;;3.87;100.00
7836;BME280;3963;42.658;23.298;2022-12-18T09:16:07;58773.38;;;3.85;100.00
7836;BME280;3963;42.658;23.298;2022-12-18T09:18:33;58757.78;;;3.92;100.00
7836;BME280;3963;42.658;23.298;2022-12-18T09:21:21;58771.16;;;4.08;100.00
7836;BME280;3963;42.658;23.298;2022-12-18T09:23:49;58809.44;;;4.32;100.00
7836;BME280;3963;42.658;23.298;2022-12-18T09:26:16;58828.38;;;4.18;100.00
7836;BME280;3963;42.658;23.298;2022-12-18T09:28:43;58809.31;;;4.15;100.00
7836;BME280;3963;42.658;23.298;2022-12-18T09:31:11;58748.25;;;3.98;100.00
7836;BME280;3963;42.658;23.298;2022-12-18T09:33:38;58778.59;;;4.15;100.00
7836;BME280;3963;42.658;23.298;2022-12-18T09:36:09;58818.97;;;4.26;100.00
7836;BME280;3963;42.658;23.298;2022-12-18T09:38:36;58740.59;;;4.13;100.00
7836;BME280;3963;42.658;23.298;2022-12-18T09:41:06;58797.88;;;4.38;100.00
7836;BME280;3963;42.658;23.298;2022-12-18T09:43:44;58804.25;;;4.44;100.00
7836;BME280;3963;42.658;23.298;2022-12-18T09:46:17;58822.91;;;4.50;100.00
7836;BME280;3963;42.658;23.298;2022-12-18T09:48:49;58817.75;;;4.35;100.00
7836;BME280;3963;42.658;23.298;2022-12-18T09:51:19;58765.00;;;4.36;100.00
7836;BME280;3963;42.658;23.298;2022-12-18T09:53:53;58796.00;;;4.29;100.00
7836;BME280;3963;42.658;23.298;2022-12-18T09:56:22;58798.41;;;4.38;100.00
7836;BME280;3963;42.658;23.298;2022-12-18T09:58:54;58818.22;;;4.47;100.00
7836;BME280;3963;42.658;23.298;2022-12-18T10:01:24;58844.69;;;4.70;100.00
7836;BME280;3963;42.658;23.298;2022-12-18T10:03:52;58877.94;;;4.82;100.00
7836;BME280;3963;42.658;23.298;2022-12-18T10:06:24;58889.38;;;4.86;100.00
7836;BME280;3963;42.658;23.298;2022-12-18T10:08:56;58887.66;;;4.82;100.00
7836;BME280;3963;42.658;23.298;2022-12-18T10:11:37;58860.25;;;4.75;100.00
7836;BME280;3963;42.658;23.298;2022-12-18T10:14:13;58834.44;;;4.70;100.00
7836;BME280;3963;42.658;23.298;2022-12-18T10:16:56;58853.44;;;4.71;100.00
7836;BME280;3963;42.658;23.298;2022-12-18T10:19:34;58805.84;;;4.60;100.00
7836;BME280;3963;42.658;23.298;2022-12-18T10:22:15;58838.59;;;4.72;100.00
7836;BME280;3963;42.658;23.298;2022-12-18T10:24:54;58832.81;;;4.54;100.00
7836;BME280;3963;42.658;23.298;2022-12-18T10:27:24;58825.22;;;4.57;100.00
7836;BME280;3963;42.658;23.298;2022-12-18T10:29:51;58797.00;;;4.42;100.00
7836;BME280;3963;42.658;23.298;2022-12-18T10:32:21;58837.31;;;4.51;100.00
7836;BME280;3963;42.658;23.298;2022-12-18T10:34:50;58816.28;;;4.51;100.00
7836;BME280;3963;42.658;23.298;2022-12-18T10:37:21;58794.81;;;4.52;100.00
7836;BME280;3963;42.658;23.298;2022-12-18T10:40:07;58805.06;;;4.52;100.00
7836;BME280;3963;42.658;23.298;2022-12-18T10:42:34;58799.66;;;4.44;100.00
7836;BME280;3963;42.658;23.298;2022-12-18T10:45:05;58809.66;;;4.52;100.00
7836;BME280;3963;42.658;23.298;2022-12-18T10:47:33;58846.31;;;4.45;100.00
7836;BME280;3963;42.658;23.298;2022-12-18T10:50:01;58789.03;;;4.34;100.00
7836;BME280;3963;42.658;23.298;2022-12-18T10:52:29;58784.59;;;4.25;100.00
7836;BME280;3963;42.658;23.298;2022-12-18T10:54:59;58832.69;;;4.37;100.00
7836;BME280;3963;42.658;23.298;2022-12-18T10:57:31;58842.63;;;4.56;100.00
7836;BME280;3963;42.658;23.298;2022-12-18T11:00:20;58844.31;;;4.60;100.00
7836;BME280;3963;42.658;23.298;2022-12-18T11:02:47;58849.56;;;4.77;100.00
7836;BME280;3963;42.658;23.298;2022-12-18T11:05:26;58883.31;;;4.75;100.00
7836;BME280;3963;42.658;23.298;2022-12-18T11:07:55;58845.31;;;4.73;100.00
7836;BME280;3963;42.658;23.298;2022-12-18T11:10:28;58861.03;;;4.69;100.00
7836;BME280;3963;42.658;23.298;2022-12-18T11:12:55;58851.84;;;4.70;100.00
7836;BME280;3963;42.658;23.298;2022-12-18T11:15:26;58851.59;;;4.77;100.00
7836;BME280;3963;42.658;23.298;2022-12-18T11:17:55;58814.28;;;4.66;100.00
7836;BME280;3963;42.658;23.298;2022-12-18T11:20:30;58785.38;;;4.75;100.00
7836;BME280;3963;42.658;23.298;2022-12-18T11:23:01;58783.84;;;4.46;100.00
7836;BME280;3963;42.658;23.298;2022-12-18T11:25:29;58823.72;;;4.58;100.00
7836;BME280;3963;42.658;23.298;2022-12-18T11:27:59;58846.44;;;4.62;100.00
7836;BME280;3963;42.658;23.298;2022-12-18T11:30:29;58818.59;;;4.58;100.00
7836;BME280;3963;42.658;23.298;2022-12-18T11:32:59;58841.50;;;4.67;100.00
7836;BME280;3963;42.658;23.298;2022-12-18T11:35:42;58850.09;;;4.78;100.00
7836;BME280;3963;42.658;23.298;2022-12-18T11:38:21;58837.00;;;4.70;100.00
7836;BME280;3963;42.658;23.298;2022-12-18T11:40:56;58859.25;;;4.62;100.00
7836;BME280;3963;42.658;23.298;2022-12-18T11:43:27;58804.78;;;4.44;100.00
7836;BME280;3963;42.658;23.298;2022-12-18T11:45:59;58827.75;;;4.42;100.00
7836;BME280;3963;42.658;23.298;2022-12-18T11:48:30;58831.06;;;4.62;100.00
7836;BME280;3963;42.658;23.298;2022-12-18T11:51:00;58816.38;;;4.53;100.00
7836;BME280;3963;42.658;23.298;2022-12-18T11:53:29;58818.66;;;4.60;100.00
7836;BME280;3963;42.658;23.298;2022-12-18T11:56:04;58849.53;;;4.63;100.00
7836;BME280;3963;42.658;23.298;2022-12-18T11:58:42;58824.88;;;4.61;100.00
7836;BME280;3963;42.658;23.298;2022-12-18T12:01:19;58838.25;;;4.76;100.00
7836;BME280;3963;42.658;23.298;2022-12-18T12:04:04;58838.31;;;4.79;100.00
7836;BME280;3963;42.658;23.298;2022-12-18T12:06:41;58836.47;;;4.84;100.00
7836;BME280;3963;42.658;23.298;2022-12-18T12:09:19;58853.38;;;4.83;100.00
7836;BME280;3963;42.658;23.298;2022-12-18T12:11:56;58843.91;;;4.77;100.00
7836;BME280;3963;42.658;23.298;2022-12-18T12:14:34;58846.88;;;4.60;100.00
7836;BME280;3963;42.658;23.298;2022-12-18T12:17:11;58786.84;;;4.44;100.00
7836;BME280;3963;42.658;23.298;2022-12-18T12:19:47;58824.59;;;4.54;100.00
7836;BME280;3963;42.658;23.298;2022-12-18T12:22:22;58842.97;;;4.52;100.00
7836;BME280;3963;42.658;23.298;2022-12-18T12:25:04;58871.63;;;4.64;100.00
7836;BME280;3963;42.658;23.298;2022-12-18T12:27:42;58843.34;;;4.62;100.00
7836;BME280;3963;42.658;23.298;2022-12-18T12:30:18;58813.81;;;4.53;100.00
7836;BME280;3963;42.658;23.298;2022-12-18T12:32:57;58811.88;;;4.71;100.00
7836;BME280;3963;42.658;23.298;2022-12-18T12:35:38;58813.31;;;4.82;100.00
7836;BME280;3963;42.658;23.298;2022-12-18T12:38:11;58830.47;;;4.74;100.00
7836;BME280;3963;42.658;23.298;2022-12-18T12:40:46;58870.00;;;4.89;100.00
7836;BME280;3963;42.658;23.298;2022-12-18T12:43:25;58889.91;;;4.86;100.00
7836;BME280;3963;42.658;23.298;2022-12-18T12:45:55;58837.09;;;4.73;100.00
7836;BME280;3963;42.658;23.298;2022-12-18T12:48:40;58851.88;;;4.84;100.00
7836;BME280;3963;42.658;23.298;2022-12-18T12:51:12;58881.75;;;4.88;100.00
7836;BME280;3963;42.658;23.298;2022-12-18T12:53:41;58843.47;;;4.93;100.00
7836;BME280;3963;42.658;23.298;2022-12-18T12:56:12;58892.75;;;5.09;100.00
7836;BME280;3963;42.658;23.298;2022-12-18T12:58:47;58854.34;;;4.96;100.00
7836;BME280;3963;42.658;23.298;2022-12-18T13:01:24;58832.41;;;4.85;100.00
7836;BME280;3963;42.658;23.298;2022-12-18T13:03:58;58856.47;;;4.84;100.00
7836;BME280;3963;42.658;23.298;2022-12-18T13:06:36;58843.13;;;4.98;100.00
7836;BME280;3963;42.658;23.298;2022-12-18T13:09:04;58849.94;;;5.02;100.00
7836;BME280;3963;42.658;23.298;2022-12-18T13:11:41;58897.78;;;4.91;100.00
7836;BME280;3963;42.658;23.298;2022-12-18T13:14:29;58855.47;;;4.71;100.00
7836;BME280;3963;42.658;23.298;2022-12-18T13:17:28;58812.91;;;4.57;100.00
7836;BME280;3963;42.658;23.298;2022-12-18T13:20:08;58815.84;;;4.53;100.00
7836;BME280;3963;42.658;23.298;2022-12-18T13:22:38;58809.41;;;4.59;100.00
7836;BME280;3963;42.658;23.298;2022-12-18T13:25:26;58832.22;;;4.66;100.00
7836;BME280;3963;42.658;23.298;2022-12-18T13:28:12;58820.09;;;4.57;100.00